sensor_id;sensor_type;location;lat;lon;timestamp;temperature;humidity
46117;DHT22;32591;48.102;11.772;2022-09-06T00:01:14;17.00;99.90
46117;DHT22;32591;48.102;11.772;2022-09-06T00:03:42;16.90;99.90
46117;DHT22;32591;48.102;11.772;2022-09-06T00:06:11;16.90;99.90
46117;DHT22;32591;48.102;11.772;2022-09-06T00:08:42;16.90;99.90
46117;DHT22;32591;48.102;11.772;2022-09-06T00:11:10;16.90;99.90
46117;DHT22;32591;48.102;11.772;2022-09-06T00:13:37;16.90;99.90
46117;DHT22;32591;48.102;11.772;2022-09-06T00:16:06;16.90;99.90
46117;DHT22;32591;48.102;11.772;2022-09-06T00:18:36;16.80;99.90
46117;DHT22;32591;48.102;11.772;2022-09-06T00:21:03;16.80;99.90
46117;DHT22;32591;48.102;11.772;2022-09-06T00:23:37;16.80;99.90
46117;DHT22;32591;48.102;11.772;2022-09-06T00:26:04;16.80;99.90
46117;DHT22;32591;48.102;11.772;2022-09-06T00:28:32;16.80;99.90
46117;DHT22;32591;48.102;11.772;2022-09-06T00:31:07;16.80;99.90
46117;DHT22;32591;48.102;11.772;2022-09-06T00:33:36;16.70;99.90
46117;DHT22;32591;48.102;11.772;2022-09-06T00:36:03;16.70;99.90
46117;DHT22;32591;48.102;11.772;2022-09-06T00:38:30;16.60;99.90
46117;DHT22;32591;48.102;11.772;2022-09-06T00:40:57;16.60;99.90
46117;DHT22;32591;48.102;11.772;2022-09-06T00:43:24;16.60;99.90
46117;DHT22;32591;48.102;11.772;2022-09-06T00:45:51;16.60;99.90
46117;DHT22;32591;48.102;11.772;2022-09-06T00:48:20;16.60;99.90
46117;DHT22;32591;48.102;11.772;2022-09-06T00:50:52;16.60;99.90
46117;DHT22;32591;48.102;11.772;2022-09-06T00:53:20;16.60;99.90
46117;DHT22;32591;48.102;11.772;2022-09-06T00:55:47;16.50;99.90
46117;DHT22;32591;48.102;11.772;2022-09-06T00:58:15;16.60;99.90
46117;DHT22;32591;48.102;11.772;2022-09-06T01:00:42;16.60;99.90
46117;DHT22;32591;48.102;11.772;2022-09-06T01:03:11;16.40;99.90
46117;DHT22;32591;48.102;11.772;2022-09-06T01:05:53;16.60;99.90
46117;DHT22;32591;48.102;11.772;2022-09-06T01:08:36;16.50;99.90
46117;DHT22;32591;48.102;11.772;2022-09-06T01:11:28;16.50;99.90
46117;DHT22;32591;48.102;11.772;2022-09-06T01:14:12;16.50;99.90
46117;DHT22;32591;48.102;11.772;2022-09-06T01:16:54;16.40;99.90
46117;DHT22;32591;48.102;11.772;2022-09-06T01:23:08;16.30;99.90
46117;DHT22;32591;48.102;11.772;2022-09-06T01:25:55;16.30;99.90
46117;DHT22;32591;48.102;11.772;2022-09-06T01:28:32;16.30;99.90
46117;DHT22;32591;48.102;11.772;2022-09-06T01:31:16;16.30;99.90
46117;DHT22;32591;48.102;11.772;2022-09-06T01:33:49;16.30;99.90
46117;DHT22;32591;48.102;11.772;2022-09-06T01:36:26;16.30;99.90
46117;DHT22;32591;48.102;11.772;2022-09-06T01:38:54;16.20;99.90
46117;DHT22;32591;48.102;11.772;2022-09-06T01:41:21;16.30;99.90
46117;DHT22;32591;48.102;11.772;2022-09-06T01:43:51;16.20;99.90
46117;DHT22;32591;48.102;11.772;2022-09-06T01:46:24;16.10;99.90
46117;DHT22;32591;48.102;11.772;2022-09-06T01:49:10;16.10;99.90
46117;DHT22;32591;48.102;11.772;2022-09-06T01:51:56;16.10;99.90
46117;DHT22;32591;48.102;11.772;2022-09-06T01:54:45;16.00;99.90
46117;DHT22;32591;48.102;11.772;2022-09-06T01:57:25;16.00;99.90
46117;DHT22;32591;48.102;11.772;2022-09-06T02:00:06;15.90;99.90
46117;DHT22;32591;48.102;11.772;2022-09-06T02:02:41;15.90;99.90
46117;DHT22;32591;48.102;11.772;2022-09-06T02:05:19;15.90;99.90
46117;DHT22;32591;48.102;11.772;2022-09-06T02:07:49;15.90;99.90
46117;DHT22;32591;48.102;11.772;2022-09-06T02:10:22;15.80;99.90
46117;DHT22;32591;48.102;11.772;2022-09-06T02:12:52;15.80;99.90
46117;DHT22;32591;48.102;11.772;2022-09-06T02:15:24;15.70;99.90
46117;DHT22;32591;48.102;11.772;2022-09-06T02:18:00;15.70;99.90
46117;DHT22;32591;48.102;11.772;2022-09-06T02:20:32;15.70;99.90
46117;DHT22;32591;48.102;11.772;2022-09-06T02:23:03;15.70;99.90
46117;DHT22;32591;48.102;11.772;2022-09-06T02:25:37;15.60;99.90
46117;DHT22;32591;48.102;11.772;2022-09-06T02:28:06;15.70;99.90
46117;DHT22;32591;48.102;11.772;2022-09-06T02:30:38;15.60;99.90
46117;DHT22;32591;48.102;11.772;2022-09-06T02:33:11;15.60;99.90
46117;DHT22;32591;48.102;11.772;2022-09-06T02:35:44;15.60;99.90
46117;DHT22;32591;48.102;11.772;2022-09-06T02:38:13;15.50;99.90
46117;DHT22;32591;48.102;11.772;2022-09-06T02:40:41;15.50;99.90
46117;DHT22;32591;48.102;11.772;2022-09-06T02:43:08;15.50;99.90
46117;DHT22;32591;48.102;11.772;2022-09-06T02:45:37;15.40;99.90
46117;DHT22;32591;48.102;11.772;2022-09-06T02:48:04;15.40;99.90
46117;DHT22;32591;48.102;11.772;2022-09-06T02:50:31;15.40;99.90
46117;DHT22;32591;48.102;11.772;2022-09-06T02:53:02;15.30;99.90
46117;DHT22;32591;48.102;11.772;2022-09-06T02:55:31;15.30;99.90
46117;DHT22;32591;48.102;11.772;2022-09-06T02:57:58;15.30;99.90
46117;DHT22;32591;48.102;11.772;2022-09-06T03:00:25;15.30;99.90
46117;DHT22;32591;48.102;11.772;2022-09-06T03:02:53;15.30;99.90
46117;DHT22;32591;48.102;11.772;2022-09-06T03:05:21;15.30;99.90
46117;DHT22;32591;48.102;11.772;2022-09-06T03:07:48;15.30;99.90
46117;DHT22;32591;48.102;11.772;2022-09-06T03:10:18;15.20;99.90
46117;DHT22;32591;48.102;11.772;2022-09-06T03:12:45;15.20;99.90
46117;DHT22;32591;48.102;11.772;2022-09-06T03:15:13;15.20;99.90
46117;DHT22;32591;48.102;11.772;2022-09-06T03:17:41;15.20;99.90
46117;DHT22;32591;48.102;11.772;2022-09-06T03:20:11;15.20;99.90
46117;DHT22;32591;48.102;11.772;2022-09-06T03:22:39;15.20;99.90
46117;DHT22;32591;48.102;11.772;2022-09-06T03:25:07;15.20;99.90
46117;DHT22;32591;48.102;11.772;2022-09-06T03:27:35;15.20;99.90
46117;DHT22;32591;48.102;11.772;2022-09-06T03:30:03;15.20;99.90
46117;DHT22;32591;48.102;11.772;2022-09-06T03:32:31;15.10;99.90
46117;DHT22;32591;48.102;11.772;2022-09-06T03:34:58;15.10;99.90
46117;DHT22;32591;48.102;11.772;2022-09-06T03:37:26;15.10;99.90
46117;DHT22;32591;48.102;11.772;2022-09-06T03:39:53;15.10;99.90
46117;DHT22;32591;48.102;11.772;2022-09-06T03:42:21;15.00;99.90
46117;DHT22;32591;48.102;11.772;2022-09-06T03:44:51;15.00;99.90
46117;DHT22;32591;48.102;11.772;2022-09-06T03:47:18;15.00;99.90
46117;DHT22;32591;48.102;11.772;2022-09-06T03:49:45;15.00;99.90
46117;DHT22;32591;48.102;11.772;2022-09-06T03:52:12;15.00;99.90
46117;DHT22;32591;48.102;11.772;2022-09-06T03:54:40;15.00;99.90
46117;DHT22;32591;48.102;11.772;2022-09-06T03:57:07;15.00;99.90
46117;DHT22;32591;48.102;11.772;2022-09-06T03:59:34;15.00;99.90
46117;DHT22;32591;48.102;11.772;2022-09-06T04:02:05;15.00;99.90
46117;DHT22;32591;48.102;11.772;2022-09-06T04:04:32;15.00;99.90
46117;DHT22;32591;48.102;11.772;2022-09-06T04:06:59;14.90;99.90
46117;DHT22;32591;48.102;11.772;2022-09-06T04:09:26;15.00;99.90
46117;DHT22;32591;48.102;11.772;2022-09-06T04:11:54;14.90;99.90
46117;DHT22;32591;48.102;11.772;2022-09-06T04:14:21;14.90;99.90
46117;DHT22;32591;48.102;11.772;2022-09-06T04:16:48;14.90;99.90
46117;DHT22;32591;48.102;11.772;2022-09-06T04:19:15;14.80;99.90
46117;DHT22;32591;48.102;11.772;2022-09-06T04:21:42;14.90;99.90
46117;DHT22;32591;48.102;11.772;2022-09-06T04:24:09;14.90;99.90
46117;DHT22;32591;48.102;11.772;2022-09-06T04:26:36;14.80;99.90
46117;DHT22;32591;48.102;11.772;2022-09-06T04:29:04;14.90;99.90
46117;DHT22;32591;48.102;11.772;2022-09-06T04:31:32;14.90;99.90
46117;DHT22;32591;48.102;11.772;2022-09-06T04:33:59;14.90;99.90
46117;DHT22;32591;48.102;11.772;2022-09-06T04:36:25;14.80;99.90
46117;DHT22;32591;48.102;11.772;2022-09-06T04:38:54;14.80;99.90
46117;DHT22;32591;48.102;11.772;2022-09-06T04:41:21;14.90;99.90
46117;DHT22;32591;48.102;11.772;2022-09-06T04:43:48;14.80;99.90
46117;DHT22;32591;48.102;11.772;2022-09-06T04:46:19;14.80;99.90
46117;DHT22;32591;48.102;11.772;2022-09-06T04:48:47;14.80;99.90
46117;DHT22;32591;48.102;11.772;2022-09-06T04:51:14;14.80;99.90
46117;DHT22;32591;48.102;11.772;2022-09-06T04:53:41;14.80;99.90
46117;DHT22;32591;48.102;11.772;2022-09-06T04:56:12;14.90;99.90
46117;DHT22;32591;48.102;11.772;2022-09-06T04:58:42;14.80;99.90
46117;DHT22;32591;48.102;11.772;2022-09-06T05:01:09;14.80;99.90
46117;DHT22;32591;48.102;11.772;2022-09-06T05:03:38;14.90;99.90
46117;DHT22;32591;48.102;11.772;2022-09-06T05:06:06;14.90;99.90
46117;DHT22;32591;48.102;11.772;2022-09-06T05:08:36;14.90;99.90
46117;DHT22;32591;48.102;11.772;2022-09-06T05:11:03;14.90;99.90
46117;DHT22;32591;48.102;11.772;2022-09-06T05:13:30;14.90;99.90
46117;DHT22;32591;48.102;11.772;2022-09-06T05:15:59;14.90;99.90
46117;DHT22;32591;48.102;11.772;2022-09-06T05:18:27;14.90;99.90
46117;DHT22;32591;48.102;11.772;2022-09-06T05:20:55;15.00;99.90
46117;DHT22;32591;48.102;11.772;2022-09-06T05:23:24;15.10;99.90
46117;DHT22;32591;48.102;11.772;2022-09-06T05:25:51;15.10;99.90
46117;DHT22;32591;48.102;11.772;2022-09-06T05:28:19;15.10;99.90
46117;DHT22;32591;48.102;11.772;2022-09-06T05:30:46;15.20;99.90
46117;DHT22;32591;48.102;11.772;2022-09-06T05:33:18;15.20;99.90
46117;DHT22;32591;48.102;11.772;2022-09-06T05:35:47;15.30;99.90
46117;DHT22;32591;48.102;11.772;2022-09-06T05:38:15;15.30;99.90
46117;DHT22;32591;48.102;11.772;2022-09-06T05:40:42;15.40;99.90
46117;DHT22;32591;48.102;11.772;2022-09-06T05:43:09;15.40;99.90
46117;DHT22;32591;48.102;11.772;2022-09-06T05:45:36;15.50;99.90
46117;DHT22;32591;48.102;11.772;2022-09-06T05:48:03;15.50;99.90
46117;DHT22;32591;48.102;11.772;2022-09-06T05:50:30;15.70;99.90
46117;DHT22;32591;48.102;11.772;2022-09-06T05:52:57;15.70;99.90
46117;DHT22;32591;48.102;11.772;2022-09-06T05:55:25;15.90;99.90
46117;DHT22;32591;48.102;11.772;2022-09-06T05:57:52;15.90;99.90
46117;DHT22;32591;48.102;11.772;2022-09-06T06:00:19;16.10;99.90
46117;DHT22;32591;48.102;11.772;2022-09-06T06:02:47;16.20;99.90
46117;DHT22;32591;48.102;11.772;2022-09-06T06:05:14;16.30;99.90
46117;DHT22;32591;48.102;11.772;2022-09-06T06:07:42;16.40;99.90
46117;DHT22;32591;48.102;11.772;2022-09-06T06:10:09;16.30;99.90
46117;DHT22;32591;48.102;11.772;2022-09-06T06:12:37;16.40;99.90
46117;DHT22;32591;48.102;11.772;2022-09-06T06:15:05;16.50;99.90
46117;DHT22;32591;48.102;11.772;2022-09-06T06:17:32;16.60;99.90
46117;DHT22;32591;48.102;11.772;2022-09-06T06:19:59;16.60;99.90
46117;DHT22;32591;48.102;11.772;2022-09-06T06:22:26;16.60;99.90
46117;DHT22;32591;48.102;11.772;2022-09-06T06:24:53;16.60;99.90
46117;DHT22;32591;48.102;11.772;2022-09-06T06:27:20;16.60;99.90
46117;DHT22;32591;48.102;11.772;2022-09-06T06:29:48;16.60;99.90
46117;DHT22;32591;48.102;11.772;2022-09-06T06:32:16;16.60;99.90
46117;DHT22;32591;48.102;11.772;2022-09-06T06:34:44;16.70;99.90
46117;DHT22;32591;48.102;11.772;2022-09-06T06:37:11;16.80;99.90
46117;DHT22;32591;48.102;11.772;2022-09-06T06:39:37;16.90;99.90
46117;DHT22;32591;48.102;11.772;2022-09-06T06:42:04;17.10;99.90
46117;DHT22;32591;48.102;11.772;2022-09-06T06:44:31;17.20;99.90
46117;DHT22;32591;48.102;11.772;2022-09-06T06:47:00;17.40;99.90
46117;DHT22;32591;48.102;11.772;2022-09-06T06:49:27;17.50;99.90
46117;DHT22;32591;48.102;11.772;2022-09-06T06:51:54;17.60;99.90
46117;DHT22;32591;48.102;11.772;2022-09-06T06:54:21;17.70;99.90
46117;DHT22;32591;48.102;11.772;2022-09-06T06:56:48;17.80;99.90
46117;DHT22;32591;48.102;11.772;2022-09-06T06:59:14;17.90;99.90
46117;DHT22;32591;48.102;11.772;2022-09-06T07:01:41;17.90;99.90
46117;DHT22;32591;48.102;11.772;2022-09-06T07:04:10;17.90;99.90
46117;DHT22;32591;48.102;11.772;2022-09-06T07:06:52;17.90;99.90
46117;DHT22;32591;48.102;11.772;2022-09-06T07:09:20;17.90;99.90
46117;DHT22;32591;48.102;11.772;2022-09-06T07:11:48;18.00;99.90
46117;DHT22;32591;48.102;11.772;2022-09-06T07:14:15;18.10;99.90
46117;DHT22;32591;48.102;11.772;2022-09-06T07:16:43;18.10;99.90
46117;DHT22;32591;48.102;11.772;2022-09-06T07:19:11;18.10;99.90
46117;DHT22;32591;48.102;11.772;2022-09-06T07:21:38;18.20;99.90
46117;DHT22;32591;48.102;11.772;2022-09-06T07:24:05;18.30;99.90
46117;DHT22;32591;48.102;11.772;2022-09-06T07:26:33;18.40;99.90
46117;DHT22;32591;48.102;11.772;2022-09-06T07:29:02;18.70;99.90
46117;DHT22;32591;48.102;11.772;2022-09-06T07:31:30;18.90;99.90
46117;DHT22;32591;48.102;11.772;2022-09-06T07:33:57;18.90;99.90
46117;DHT22;32591;48.102;11.772;2022-09-06T07:36:26;19.10;99.90
46117;DHT22;32591;48.102;11.772;2022-09-06T07:38:53;19.30;99.80
46117;DHT22;32591;48.102;11.772;2022-09-06T07:41:20;19.50;98.90
46117;DHT22;32591;48.102;11.772;2022-09-06T07:43:50;19.70;98.00
46117;DHT22;32591;48.102;11.772;2022-09-06T07:46:19;19.80;97.60
46117;DHT22;32591;48.102;11.772;2022-09-06T07:48:47;19.90;97.20
46117;DHT22;32591;48.102;11.772;2022-09-06T07:51:17;20.00;96.60
46117;DHT22;32591;48.102;11.772;2022-09-06T07:53:49;20.10;96.10
46117;DHT22;32591;48.102;11.772;2022-09-06T07:56:18;20.10;95.80
46117;DHT22;32591;48.102;11.772;2022-09-06T07:58:46;20.10;95.50
46117;DHT22;32591;48.102;11.772;2022-09-06T08:01:18;20.00;95.80
46117;DHT22;32591;48.102;11.772;2022-09-06T08:03:52;19.90;95.80
46117;DHT22;32591;48.102;11.772;2022-09-06T08:06:20;19.80;96.10
46117;DHT22;32591;48.102;11.772;2022-09-06T08:08:49;19.80;96.70
46117;DHT22;32591;48.102;11.772;2022-09-06T08:11:17;19.70;97.00
46117;DHT22;32591;48.102;11.772;2022-09-06T08:13:47;19.60;97.00
46117;DHT22;32591;48.102;11.772;2022-09-06T08:16:16;19.50;97.50
46117;DHT22;32591;48.102;11.772;2022-09-06T08:18:43;19.30;97.90
46117;DHT22;32591;48.102;11.772;2022-09-06T08:21:11;19.30;98.40
46117;DHT22;32591;48.102;11.772;2022-09-06T08:23:39;19.20;98.90
46117;DHT22;32591;48.102;11.772;2022-09-06T08:26:10;19.30;99.00
46117;DHT22;32591;48.102;11.772;2022-09-06T08:28:37;19.20;99.40
46117;DHT22;32591;48.102;11.772;2022-09-06T08:31:05;19.30;99.30
46117;DHT22;32591;48.102;11.772;2022-09-06T08:33:33;19.20;99.70
46117;DHT22;32591;48.102;11.772;2022-09-06T08:36:00;19.40;99.80
46117;DHT22;32591;48.102;11.772;2022-09-06T08:38:27;19.50;99.70
46117;DHT22;32591;48.102;11.772;2022-09-06T08:41:05;19.50;99.80
46117;DHT22;32591;48.102;11.772;2022-09-06T08:43:35;19.60;99.00
46117;DHT22;32591;48.102;11.772;2022-09-06T08:46:03;19.70;98.50
46117;DHT22;32591;48.102;11.772;2022-09-06T08:48:34;20.00;98.40
46117;DHT22;32591;48.102;11.772;2022-09-06T08:51:18;20.10;98.20
46117;DHT22;32591;48.102;11.772;2022-09-06T08:53:59;20.20;97.80
46117;DHT22;32591;48.102;11.772;2022-09-06T08:56:36;20.40;97.70
46117;DHT22;32591;48.102;11.772;2022-09-06T08:59:11;20.50;97.20
46117;DHT22;32591;48.102;11.772;2022-09-06T09:01:46;20.60;97.00
46117;DHT22;32591;48.102;11.772;2022-09-06T09:04:20;20.70;96.30
46117;DHT22;32591;48.102;11.772;2022-09-06T09:06:52;20.90;96.00
46117;DHT22;32591;48.102;11.772;2022-09-06T09:09:26;21.10;95.80
46117;DHT22;32591;48.102;11.772;2022-09-06T09:11:56;21.20;95.40
46117;DHT22;32591;48.102;11.772;2022-09-06T09:14:28;21.40;95.40
46117;DHT22;32591;48.102;11.772;2022-09-06T09:17:03;21.60;94.30
46117;DHT22;32591;48.102;11.772;2022-09-06T09:19:31;21.70;93.70
46117;DHT22;32591;48.102;11.772;2022-09-06T09:22:01;21.80;93.10
46117;DHT22;32591;48.102;11.772;2022-09-06T09:24:28;22.00;92.70
46117;DHT22;32591;48.102;11.772;2022-09-06T09:27:04;22.20;91.60
46117;DHT22;32591;48.102;11.772;2022-09-06T09:29:56;22.30;91.10
46117;DHT22;32591;48.102;11.772;2022-09-06T09:32:32;22.30;90.20
46117;DHT22;32591;48.102;11.772;2022-09-06T09:35:26;22.30;90.00
46117;DHT22;32591;48.102;11.772;2022-09-06T09:38:02;22.30;90.20
46117;DHT22;32591;48.102;11.772;2022-09-06T09:40:34;22.10;90.80
46117;DHT22;32591;48.102;11.772;2022-09-06T09:43:12;22.20;91.30
46117;DHT22;32591;48.102;11.772;2022-09-06T09:45:42;22.10;91.80
46117;DHT22;32591;48.102;11.772;2022-09-06T09:48:22;22.10;91.60
46117;DHT22;32591;48.102;11.772;2022-09-06T09:50:52;22.30;91.50
46117;DHT22;32591;48.102;11.772;2022-09-06T09:53:21;22.50;91.80
46117;DHT22;32591;48.102;11.772;2022-09-06T09:55:54;22.70;91.20
46117;DHT22;32591;48.102;11.772;2022-09-06T09:58:29;22.80;91.90
46117;DHT22;32591;48.102;11.772;2022-09-06T10:01:16;22.90;91.40
46117;DHT22;32591;48.102;11.772;2022-09-06T10:03:45;23.00;92.10
46117;DHT22;32591;48.102;11.772;2022-09-06T10:06:13;23.20;91.30
46117;DHT22;32591;48.102;11.772;2022-09-06T10:08:42;23.30;91.40
46117;DHT22;32591;48.102;11.772;2022-09-06T10:11:13;23.30;91.00
46117;DHT22;32591;48.102;11.772;2022-09-06T10:13:40;23.20;91.10
46117;DHT22;32591;48.102;11.772;2022-09-06T10:16:08;23.10;90.50
46117;DHT22;32591;48.102;11.772;2022-09-06T10:18:38;23.00;90.70
46117;DHT22;32591;48.102;11.772;2022-09-06T10:21:09;23.00;90.90
46117;DHT22;32591;48.102;11.772;2022-09-06T10:23:52;23.00;90.30
46117;DHT22;32591;48.102;11.772;2022-09-06T10:26:33;23.00;90.80
46117;DHT22;32591;48.102;11.772;2022-09-06T10:29:05;22.90;90.50
46117;DHT22;32591;48.102;11.772;2022-09-06T10:31:57;22.80;90.30
46117;DHT22;32591;48.102;11.772;2022-09-06T10:40:59;23.30;91.00
46117;DHT22;32591;48.102;11.772;2022-09-06T10:43:41;23.40;90.50
46117;DHT22;32591;48.102;11.772;2022-09-06T10:46:14;23.40;89.70
46117;DHT22;32591;48.102;11.772;2022-09-06T10:48:44;23.60;88.50
46117;DHT22;32591;48.102;11.772;2022-09-06T10:51:17;23.70;88.30
46117;DHT22;32591;48.102;11.772;2022-09-06T10:53:54;23.80;85.80
46117;DHT22;32591;48.102;11.772;2022-09-06T10:56:28;23.80;86.30
46117;DHT22;32591;48.102;11.772;2022-09-06T10:59:01;23.90;85.70
46117;DHT22;32591;48.102;11.772;2022-09-06T11:01:34;24.00;84.80
46117;DHT22;32591;48.102;11.772;2022-09-06T11:04:08;24.20;85.20
46117;DHT22;32591;48.102;11.772;2022-09-06T11:06:43;24.30;80.80
46117;DHT22;32591;48.102;11.772;2022-09-06T11:09:18;24.60;82.00
46117;DHT22;32591;48.102;11.772;2022-09-06T11:11:56;24.80;80.60
46117;DHT22;32591;48.102;11.772;2022-09-06T11:14:29;25.10;82.00
46117;DHT22;32591;48.102;11.772;2022-09-06T11:17:03;25.30;79.80
46117;DHT22;32591;48.102;11.772;2022-09-06T11:19:37;25.40;77.70
46117;DHT22;32591;48.102;11.772;2022-09-06T11:25:44;25.60;75.10
46117;DHT22;32591;48.102;11.772;2022-09-06T11:28:27;25.80;74.50
46117;DHT22;32591;48.102;11.772;2022-09-06T11:30:57;25.80;74.40
46117;DHT22;32591;48.102;11.772;2022-09-06T11:33:26;25.80;73.70
46117;DHT22;32591;48.102;11.772;2022-09-06T11:36:15;25.90;73.60
46117;DHT22;32591;48.102;11.772;2022-09-06T11:38:53;26.00;72.90
46117;DHT22;32591;48.102;11.772;2022-09-06T11:41:27;26.10;73.70
46117;DHT22;32591;48.102;11.772;2022-09-06T11:43:56;26.20;72.50
46117;DHT22;32591;48.102;11.772;2022-09-06T11:47:00;26.40;72.60
46117;DHT22;32591;48.102;11.772;2022-09-06T11:49:33;26.50;71.80
46117;DHT22;32591;48.102;11.772;2022-09-06T11:55:03;26.30;70.80
46117;DHT22;32591;48.102;11.772;2022-09-06T11:57:36;26.30;69.70
46117;DHT22;32591;48.102;11.772;2022-09-06T12:00:06;26.40;70.30
46117;DHT22;32591;48.102;11.772;2022-09-06T12:02:35;26.30;71.60
46117;DHT22;32591;48.102;11.772;2022-09-06T12:05:19;26.40;71.10
46117;DHT22;32591;48.102;11.772;2022-09-06T12:08:23;26.60;70.30
46117;DHT22;32591;48.102;11.772;2022-09-06T12:11:02;26.70;70.50
46117;DHT22;32591;48.102;11.772;2022-09-06T12:13:47;26.70;71.00
46117;DHT22;32591;48.102;11.772;2022-09-06T12:16:23;26.60;70.20
46117;DHT22;32591;48.102;11.772;2022-09-06T12:19:00;26.50;71.40
46117;DHT22;32591;48.102;11.772;2022-09-06T12:21:45;26.50;71.40
46117;DHT22;32591;48.102;11.772;2022-09-06T12:24:51;26.60;70.60
46117;DHT22;32591;48.102;11.772;2022-09-06T12:27:21;26.60;72.00
46117;DHT22;32591;48.102;11.772;2022-09-06T12:29:54;26.50;70.90
46117;DHT22;32591;48.102;11.772;2022-09-06T12:32:31;26.60;71.50
46117;DHT22;32591;48.102;11.772;2022-09-06T12:35:02;26.40;71.30
46117;DHT22;32591;48.102;11.772;2022-09-06T12:37:33;26.30;72.80
46117;DHT22;32591;48.102;11.772;2022-09-06T12:40:03;26.10;72.70
46117;DHT22;32591;48.102;11.772;2022-09-06T12:42:33;26.10;74.00
46117;DHT22;32591;48.102;11.772;2022-09-06T12:45:07;26.20;74.00
46117;DHT22;32591;48.102;11.772;2022-09-06T12:47:36;26.40;74.00
46117;DHT22;32591;48.102;11.772;2022-09-06T12:50:06;26.70;72.60
46117;DHT22;32591;48.102;11.772;2022-09-06T12:52:47;26.90;72.40
46117;DHT22;32591;48.102;11.772;2022-09-06T12:55:20;27.20;71.10
46117;DHT22;32591;48.102;11.772;2022-09-06T12:57:51;27.20;70.20
46117;DHT22;32591;48.102;11.772;2022-09-06T13:00:21;27.20;72.50
46117;DHT22;32591;48.102;11.772;2022-09-06T13:02:56;27.50;70.80
46117;DHT22;32591;48.102;11.772;2022-09-06T13:05:27;27.70;70.40
46117;DHT22;32591;48.102;11.772;2022-09-06T13:07:56;27.60;70.10
46117;DHT22;32591;48.102;11.772;2022-09-06T13:10:26;27.60;69.90
46117;DHT22;32591;48.102;11.772;2022-09-06T13:12:55;27.70;70.60
46117;DHT22;32591;48.102;11.772;2022-09-06T13:15:25;27.70;68.50
46117;DHT22;32591;48.102;11.772;2022-09-06T13:18:19;27.80;68.50
46117;DHT22;32591;48.102;11.772;2022-09-06T13:20:57;28.00;68.50
46117;DHT22;32591;48.102;11.772;2022-09-06T13:23:26;28.10;69.00
46117;DHT22;32591;48.102;11.772;2022-09-06T13:25:54;28.30;70.90
46117;DHT22;32591;48.102;11.772;2022-09-06T13:28:26;28.50;70.20
46117;DHT22;32591;48.102;11.772;2022-09-06T13:31:06;28.70;70.00
46117;DHT22;32591;48.102;11.772;2022-09-06T13:33:34;28.90;68.60
46117;DHT22;32591;48.102;11.772;2022-09-06T13:36:14;28.70;67.20
46117;DHT22;32591;48.102;11.772;2022-09-06T13:38:45;28.80;67.40
46117;DHT22;32591;48.102;11.772;2022-09-06T13:41:31;29.00;66.30
46117;DHT22;32591;48.102;11.772;2022-09-06T13:46:57;29.30;68.30
46117;DHT22;32591;48.102;11.772;2022-09-06T13:49:24;29.40;68.40
46117;DHT22;32591;48.102;11.772;2022-09-06T13:51:53;29.30;66.70
46117;DHT22;32591;48.102;11.772;2022-09-06T13:54:23;29.30;66.70
46117;DHT22;32591;48.102;11.772;2022-09-06T13:56:51;29.30;68.30
46117;DHT22;32591;48.102;11.772;2022-09-06T13:59:18;29.60;66.50
46117;DHT22;32591;48.102;11.772;2022-09-06T14:01:48;29.80;67.10
46117;DHT22;32591;48.102;11.772;2022-09-06T14:04:21;29.60;66.50
46117;DHT22;32591;48.102;11.772;2022-09-06T14:06:48;29.60;65.10
46117;DHT22;32591;48.102;11.772;2022-09-06T14:09:15;29.60;65.20
46117;DHT22;32591;48.102;11.772;2022-09-06T14:11:42;29.20;63.90
46117;DHT22;32591;48.102;11.772;2022-09-06T14:14:09;28.80;63.50
46117;DHT22;32591;48.102;11.772;2022-09-06T14:16:36;28.50;63.90
46117;DHT22;32591;48.102;11.772;2022-09-06T14:19:04;28.40;63.90
46117;DHT22;32591;48.102;11.772;2022-09-06T14:21:32;28.50;64.40
46117;DHT22;32591;48.102;11.772;2022-09-06T14:23:59;28.70;65.50
46117;DHT22;32591;48.102;11.772;2022-09-06T14:26:27;29.00;64.90
46117;DHT22;32591;48.102;11.772;2022-09-06T14:28:55;29.30;64.10
46117;DHT22;32591;48.102;11.772;2022-09-06T14:31:23;29.70;63.90
46117;DHT22;32591;48.102;11.772;2022-09-06T14:33:52;30.00;64.10
46117;DHT22;32591;48.102;11.772;2022-09-06T14:36:21;30.00;63.50
46117;DHT22;32591;48.102;11.772;2022-09-06T14:38:51;29.90;64.90
46117;DHT22;32591;48.102;11.772;2022-09-06T14:41:19;29.50;64.20
46117;DHT22;32591;48.102;11.772;2022-09-06T14:43:48;28.90;65.50
46117;DHT22;32591;48.102;11.772;2022-09-06T14:46:17;28.40;66.80
46117;DHT22;32591;48.102;11.772;2022-09-06T14:48:46;27.90;67.60
46117;DHT22;32591;48.102;11.772;2022-09-06T14:51:14;27.60;69.00
46117;DHT22;32591;48.102;11.772;2022-09-06T14:53:47;27.40;70.30
46117;DHT22;32591;48.102;11.772;2022-09-06T14:56:16;27.20;69.20
46117;DHT22;32591;48.102;11.772;2022-09-06T14:58:43;27.00;71.30
46117;DHT22;32591;48.102;11.772;2022-09-06T15:01:12;27.00;70.40
46117;DHT22;32591;48.102;11.772;2022-09-06T15:03:42;26.90;70.60
46117;DHT22;32591;48.102;11.772;2022-09-06T15:06:11;26.90;71.60
46117;DHT22;32591;48.102;11.772;2022-09-06T15:08:38;26.80;72.90
46117;DHT22;32591;48.102;11.772;2022-09-06T15:11:06;26.60;74.50
46117;DHT22;32591;48.102;11.772;2022-09-06T15:13:36;26.30;74.40
46117;DHT22;32591;48.102;11.772;2022-09-06T15:16:04;26.20;79.00
46117;DHT22;32591;48.102;11.772;2022-09-06T15:18:32;26.30;79.90
46117;DHT22;32591;48.102;11.772;2022-09-06T15:21:07;26.40;81.10
46117;DHT22;32591;48.102;11.772;2022-09-06T15:23:34;26.70;85.00
46117;DHT22;32591;48.102;11.772;2022-09-06T15:26:01;26.90;84.80
46117;DHT22;32591;48.102;11.772;2022-09-06T15:28:28;27.10;83.70
46117;DHT22;32591;48.102;11.772;2022-09-06T15:30:56;27.20;82.70
46117;DHT22;32591;48.102;11.772;2022-09-06T15:33:27;27.40;83.40
46117;DHT22;32591;48.102;11.772;2022-09-06T15:35:55;27.60;82.70
46117;DHT22;32591;48.102;11.772;2022-09-06T15:38:22;27.70;82.50
46117;DHT22;32591;48.102;11.772;2022-09-06T15:40:49;27.80;81.60
46117;DHT22;32591;48.102;11.772;2022-09-06T15:43:16;27.90;81.90
46117;DHT22;32591;48.102;11.772;2022-09-06T15:45:45;28.00;79.40
46117;DHT22;32591;48.102;11.772;2022-09-06T15:48:15;27.80;80.70
46117;DHT22;32591;48.102;11.772;2022-09-06T15:50:43;27.60;80.10
46117;DHT22;32591;48.102;11.772;2022-09-06T15:53:10;27.40;81.00
46117;DHT22;32591;48.102;11.772;2022-09-06T15:55:38;27.40;81.10
46117;DHT22;32591;48.102;11.772;2022-09-06T15:58:23;27.30;78.60